Time;durP1;ratioP1;P1;durP2;ratioP2;P2;SDS_P1;SDS_P2;PMS_P1;PMS_P2;Temp;Humidity;BMP_temperature;BMP_pressure;BME280_temperature;BME280_humidity;BME280_pressure;Samples;Min_cycle;Max_cycle;Signal;HPM_P1;HPM_P2
2022/07/20 00:00:26;;;;;;;4.00;1.70;;;24.10;59.50;;;;;;5044334;28;20236;-76
2022/07/20 00:02:53;;;;;;;5.13;1.77;;;24.10;59.60;;;;;;5044698;28;20207;-76
2022/07/20 00:05:20;;;;;;;6.90;1.77;;;24.10;59.70;;;;;;5047376;28;20552;-76
2022/07/20 00:07:48;;;;;;;2.50;1.53;;;24.00;59.80;;;;;;5044690;28;20292;-76
2022/07/20 00:13:01;;;;;;;6.57;1.90;;;24.00;60.00;;;;;;5045386;28;20231;-76
2022/07/20 00:15:28;;;;;;;6.57;1.80;;;24.00;60.60;;;;;;5046499;28;20214;-75
2022/07/20 00:17:55;;;;;;;5.67;2.40;;;23.90;60.70;;;;;;5044478;28;20198;-75
2022/07/20 00:20:23;;;;;;;6.37;1.90;;;23.90;60.50;;;;;;5043890;28;20219;-75
2022/07/20 00:22:50;;;;;;;7.20;1.60;;;23.90;60.40;;;;;;5044321;28;20665;-75
2022/07/20 00:25:17;;;;;;;2.13;1.93;;;23.90;60.40;;;;;;5041378;28;20199;-75
2022/07/20 00:27:44;;;;;;;6.93;2.00;;;23.80;60.40;;;;;;5030573;28;20239;-75
2022/07/20 00:30:12;;;;;;;5.03;1.87;;;23.80;60.70;;;;;;5047055;28;20221;-75
2022/07/20 00:32:40;;;;;;;4.30;2.30;;;23.70;60.90;;;;;;5044099;28;20214;-76
2022/07/20 00:35:10;;;;;;;7.67;1.80;;;23.70;61.10;;;;;;5044122;28;20198;-75
2022/07/20 00:37:38;;;;;;;2.90;2.03;;;23.70;61.30;;;;;;5043404;28;20208;-75
2022/07/20 00:40:07;;;;;;;3.43;1.80;;;23.70;62.40;;;;;;5073036;28;20269;-75
2022/07/20 00:42:35;;;;;;;5.13;2.43;;;23.60;62.50;;;;;;5042069;28;20206;-75
2022/07/20 00:45:04;;;;;;;21.73;3.10;;;23.60;62.00;;;;;;5049456;28;20203;-75
2022/07/20 00:47:31;;;;;;;10.87;2.57;;;23.60;61.70;;;;;;5047383;28;20195;-75
2022/07/20 00:49:58;;;;;;;5.17;2.43;;;23.50;61.50;;;;;;5045693;28;20199;-75
2022/07/20 00:52:26;;;;;;;6.50;2.10;;;23.50;61.40;;;;;;5044705;28;20577;-75
2022/07/20 00:54:54;;;;;;;6.27;1.70;;;23.50;61.40;;;;;;5043960;28;20602;-75
2022/07/20 00:57:21;;;;;;;3.53;1.90;;;23.50;61.50;;;;;;5043310;28;20211;-75
2022/07/20 00:59:48;;;;;;;5.63;1.80;;;23.50;61.60;;;;;;5049964;28;20204;-75
2022/07/20 01:02:15;;;;;;;6.27;1.90;;;23.40;61.70;;;;;;5041366;28;20595;-75
2022/07/20 01:04:42;;;;;;;3.67;2.00;;;23.40;61.60;;;;;;5046167;28;20289;-75
2022/07/20 01:07:09;;;;;;;5.73;2.17;;;23.40;61.50;;;;;;5040986;28;20194;-75
2022/07/20 01:09:36;;;;;;;10.67;2.87;;;23.40;61.50;;;;;;5044525;28;20204;-75
2022/07/20 01:12:04;;;;;;;9.17;2.43;;;23.40;61.60;;;;;;5038760;28;20210;-76
2022/07/20 01:14:31;;;;;;;6.50;2.17;;;23.40;61.70;;;;;;5044685;28;20741;-76
2022/07/20 01:16:58;;;;;;;6.43;2.70;;;23.40;61.90;;;;;;5042492;28;20203;-75
2022/07/20 01:19:25;;;;;;;3.60;2.20;;;23.30;61.80;;;;;;5045042;28;20218;-75
2022/07/20 01:21:52;;;;;;;6.57;2.17;;;23.30;62.10;;;;;;5041454;28;20226;-75
2022/07/20 01:24:19;;;;;;;9.90;2.30;;;23.20;62.20;;;;;;5043830;28;20199;-75
2022/07/20 01:26:47;;;;;;;7.73;2.23;;;23.20;62.50;;;;;;5041448;28;20241;-75
2022/07/20 01:29:14;;;;;;;6.20;2.20;;;23.20;62.60;;;;;;5057468;28;20209;-75
2022/07/20 01:31:41;;;;;;;3.43;1.87;;;23.10;62.70;;;;;;5043206;28;20203;-75
2022/07/20 01:34:09;;;;;;;4.80;2.00;;;23.10;62.60;;;;;;5041860;28;20272;-75
2022/07/20 01:36:37;;;;;;;6.43;2.27;;;23.00;63.20;;;;;;5037765;28;20214;-75
2022/07/20 01:39:04;;;;;;;7.80;2.03;;;23.00;63.80;;;;;;5039871;28;20218;-75
2022/07/20 01:41:31;;;;;;;6.83;2.10;;;22.90;63.60;;;;;;5042192;28;20218;-75
2022/07/20 01:43:58;;;;;;;5.20;1.80;;;22.90;63.40;;;;;;5031738;28;20207;-75
2022/07/20 01:46:25;;;;;;;4.30;1.80;;;22.80;63.00;;;;;;5041134;28;20210;-75
2022/07/20 01:48:53;;;;;;;8.60;1.87;;;22.80;63.30;;;;;;5059840;28;20549;-75
2022/07/20 01:51:20;;;;;;;4.10;2.10;;;22.80;64.00;;;;;;5042108;28;20216;-75
2022/07/20 01:53:48;;;;;;;3.93;2.40;;;22.80;64.80;;;;;;5038685;28;20213;-75
2022/07/20 01:56:15;;;;;;;4.67;1.93;;;22.70;65.00;;;;;;5041527;28;20210;-75
2022/07/20 01:58:42;;;;;;;8.00;2.30;;;22.70;64.70;;;;;;5045689;28;20210;-75
2022/07/20 02:01:10;;;;;;;4.80;2.00;;;22.70;64.50;;;;;;5041434;28;20228;-75
2022/07/20 02:03:38;;;;;;;2.37;2.00;;;22.70;64.30;;;;;;5047665;28;20199;-75
2022/07/20 02:06:06;;;;;;;5.17;2.43;;;22.70;64.00;;;;;;5043755;28;20688;-75
2022/07/20 02:08:33;;;;;;;9.77;2.50;;;22.70;63.80;;;;;;5049293;28;20285;-75
2022/07/20 02:11:00;;;;;;;6.37;2.40;;;22.70;63.90;;;;;;5039418;28;20226;-76
2022/07/20 02:13:28;;;;;;;7.03;2.53;;;22.70;64.20;;;;;;5046151;28;20199;-75
2022/07/20 02:18:57;;;;;;;7.77;2.27;;;22.70;64.20;;;;;;5045833;28;20242;-75
2022/07/20 02:21:25;;;;;;;9.27;2.57;;;22.70;64.30;;;;;;5040429;28;20219;-75
2022/07/20 02:23:52;;;;;;;6.10;2.10;;;22.60;64.20;;;;;;5043271;28;20237;-75
2022/07/20 02:26:19;;;;;;;3.97;2.53;;;22.60;64.10;;;;;;5042919;28;20262;-75
2022/07/20 02:28:47;;;;;;;6.33;2.60;;;22.60;64.20;;;;;;5041450;28;20226;-75
2022/07/20 02:31:15;;;;;;;5.53;2.70;;;22.60;64.60;;;;;;5037444;28;20210;-75
2022/07/20 02:33:42;;;;;;;4.07;2.23;;;22.60;64.60;;;;;;5040242;28;20199;-75
2022/07/20 02:36:09;;;;;;;4.10;2.60;;;22.60;64.30;;;;;;5044085;28;20198;-75
2022/07/20 02:38:37;;;;;;;2.17;1.90;;;22.60;64.30;;;;;;5047071;28;20216;-75
2022/07/20 02:41:05;;;;;;;6.77;2.50;;;22.50;64.50;;;;;;5045055;28;20241;-75
2022/07/20 02:43:32;;;;;;;5.60;2.13;;;22.50;64.80;;;;;;5042063;28;20404;-75
2022/07/20 02:45:59;;;;;;;5.37;2.40;;;22.40;64.80;;;;;;5041250;28;20285;-75
2022/07/20 02:48:26;;;;;;;3.97;2.33;;;22.40;64.90;;;;;;5037906;28;20296;-75
2022/07/20 02:50:54;;;;;;;6.00;2.20;;;22.30;65.50;;;;;;5030952;28;20238;-75
2022/07/20 02:53:21;;;;;;;5.60;2.43;;;22.30;65.80;;;;;;5037105;28;20203;-75
2022/07/20 02:55:49;;;;;;;5.13;2.30;;;22.30;65.90;;;;;;5043614;28;20198;-75
2022/07/20 02:58:16;;;;;;;7.97;2.50;;;22.30;65.90;;;;;;5039502;28;20604;-75
2022/07/20 03:00:44;;;;;;;5.83;2.70;;;22.20;66.10;;;;;;5044098;28;20280;-75
2022/07/20 03:03:11;;;;;;;5.00;2.13;;;22.20;65.40;;;;;;5039777;28;20673;-75
2022/07/20 03:05:38;;;;;;;6.30;2.30;;;22.20;65.40;;;;;;5042151;28;20254;-75
2022/07/20 03:08:07;;;;;;;4.87;2.30;;;22.10;65.70;;;;;;5041594;28;20191;-75
2022/07/20 03:10:35;;;;;;;7.43;2.70;;;22.10;65.80;;;;;;5040345;28;20195;-75
2022/07/20 03:13:02;;;;;;;3.33;2.07;;;22.10;65.90;;;;;;5040524;28;20663;-75
2022/07/20 03:15:30;;;;;;;5.97;3.17;;;22.00;66.00;;;;;;5037205;28;20197;-75
2022/07/20 03:17:57;;;;;;;5.07;2.53;;;22.00;66.20;;;;;;5041235;28;20206;-75
2022/07/20 03:20:32;;;;;;;7.40;2.93;;;22.00;66.30;;;;;;5041841;28;20649;-75
2022/07/20 03:23:00;;;;;;;8.93;2.33;;;21.90;66.50;;;;;;5057870;28;20285;-75
2022/07/20 03:25:27;;;;;;;5.80;2.50;;;21.90;66.70;;;;;;5042678;28;20205;-75
2022/07/20 03:27:56;;;;;;;9.03;2.70;;;21.80;67.10;;;;;;5040024;28;20252;-75
2022/07/20 03:30:24;;;;;;;10.57;3.37;;;21.80;67.40;;;;;;5037089;28;20212;-75
2022/07/20 03:32:53;;;;;;;8.50;3.23;;;21.70;67.60;;;;;;5041780;28;20207;-75
2022/07/20 03:35:21;;;;;;;7.83;3.17;;;21.70;67.80;;;;;;5046211;28;20217;-75
2022/07/20 03:37:49;;;;;;;6.23;2.33;;;21.70;67.80;;;;;;5038993;28;20257;-75
2022/07/20 03:40:16;;;;;;;9.53;3.30;;;21.70;67.80;;;;;;5039895;28;20594;-75
2022/07/20 03:42:43;;;;;;;9.63;2.70;;;21.70;67.90;;;;;;5039098;28;20227;-75
2022/07/20 03:45:11;;;;;;;6.53;2.60;;;21.60;67.90;;;;;;5046822;28;20199;-75
2022/07/20 03:47:38;;;;;;;8.07;2.70;;;21.60;68.00;;;;;;5047799;28;20202;-75
2022/07/20 03:50:06;;;;;;;8.70;2.73;;;21.70;68.30;;;;;;5043449;28;20697;-75
2022/07/20 03:52:33;;;;;;;7.03;2.40;;;21.60;68.30;;;;;;5042125;28;20684;-75
2022/07/20 03:55:00;;;;;;;6.73;2.77;;;21.60;68.30;;;;;;5039513;28;20727;-75
2022/07/20 03:57:28;;;;;;;4.93;2.50;;;21.60;68.50;;;;;;5051439;28;20209;-75
2022/07/20 03:59:55;;;;;;;12.77;2.93;;;21.60;69.50;;;;;;5048658;28;20208;-75
2022/07/20 04:02:22;;;;;;;5.17;2.37;;;21.50;69.10;;;;;;5051002;28;20688;-75
2022/07/20 04:04:50;;;;;;;5.73;3.20;;;21.50;69.30;;;;;;5038328;28;20213;-75
2022/07/20 04:07:17;;;;;;;5.53;3.10;;;21.50;69.60;;;;;;5044245;28;20241;-75
2022/07/20 04:09:44;;;;;;;11.67;3.00;;;21.40;70.00;;;;;;5032724;28;20233;-75
2022/07/20 04:12:18;;;;;;;8.83;2.80;;;21.50;70.50;;;;;;5043969;28;20210;-75
2022/07/20 04:14:47;;;;;;;8.37;2.50;;;21.40;70.70;;;;;;5047410;28;20213;-75
2022/07/20 04:17:14;;;;;;;7.13;3.20;;;21.40;70.80;;;;;;5049045;28;20236;-74
2022/07/20 04:19:41;;;;;;;10.23;2.97;;;21.50;71.00;;;;;;5042567;28;20216;-74
2022/07/20 04:22:08;;;;;;;11.17;3.53;;;21.50;71.10;;;;;;5045168;28;20227;-74
2022/07/20 04:24:36;;;;;;;8.90;3.00;;;21.60;71.10;;;;;;5040041;28;20228;-74
2022/07/20 04:27:04;;;;;;;8.30;3.07;;;21.70;71.00;;;;;;5048583;28;20237;-74
2022/07/20 04:29:31;;;;;;;6.93;3.40;;;21.80;70.90;;;;;;5049180;28;20199;-74
2022/07/20 04:31:59;;;;;;;8.03;3.27;;;21.90;70.80;;;;;;5040193;28;20300;-74
2022/07/20 04:34:27;;;;;;;11.17;2.70;;;22.00;70.70;;;;;;5041835;28;20198;-74
2022/07/20 04:36:55;;;;;;;7.30;3.13;;;22.00;70.50;;;;;;5042963;28;20203;-74
2022/07/20 04:39:22;;;;;;;5.70;3.43;;;22.10;70.60;;;;;;5042494;28;20202;-74
2022/07/20 04:41:50;;;;;;;7.27;3.50;;;22.20;70.40;;;;;;5044148;28;20313;-74
2022/07/20 04:44:17;;;;;;;9.13;3.07;;;22.20;70.20;;;;;;5047040;28;20212;-74
2022/07/20 04:46:44;;;;;;;7.20;3.00;;;22.30;70.30;;;;;;5045104;28;20210;-74
2022/07/20 04:49:12;;;;;;;7.57;3.10;;;22.40;70.20;;;;;;5041204;28;20199;-74
2022/07/20 04:51:39;;;;;;;8.93;3.47;;;22.50;69.80;;;;;;5043596;28;20206;-74
2022/07/20 04:54:06;;;;;;;8.13;3.57;;;22.50;69.60;;;;;;5038750;28;20198;-74
2022/07/20 04:56:34;;;;;;;10.97;3.10;;;22.60;69.40;;;;;;5043372;28;20249;-74
2022/07/20 04:59:01;;;;;;;8.07;3.07;;;22.70;69.60;;;;;;5043049;28;20204;-74
2022/07/20 05:01:28;;;;;;;7.37;3.73;;;22.80;69.70;;;;;;5041962;28;20220;-75
2022/07/20 05:03:56;;;;;;;8.93;3.13;;;22.90;69.60;;;;;;5041336;28;20222;-75
2022/07/20 05:06:24;;;;;;;13.97;3.03;;;22.90;69.20;;;;;;5042610;28;20694;-75
2022/07/20 05:08:51;;;;;;;10.23;2.57;;;23.00;69.00;;;;;;5041364;28;20274;-74
2022/07/20 05:11:19;;;;;;;11.17;2.77;;;23.20;68.70;;;;;;5041336;28;20341;-74
2022/07/20 05:13:47;;;;;;;5.43;2.83;;;23.30;68.50;;;;;;5046997;28;20587;-74
2022/07/20 05:16:14;;;;;;;10.07;3.27;;;23.50;68.20;;;;;;5046731;28;20544;-74
2022/07/20 05:18:42;;;;;;;7.00;2.73;;;23.60;67.90;;;;;;5041825;28;20202;-74
2022/07/20 05:21:09;;;;;;;12.50;3.00;;;23.70;67.50;;;;;;5046035;28;20238;-74
2022/07/20 05:23:36;;;;;;;4.23;2.17;;;23.90;67.20;;;;;;5046567;28;20223;-74
2022/07/20 05:26:04;;;;;;;9.00;2.30;;;24.10;66.80;;;;;;5044730;28;20242;-74
2022/07/20 05:28:31;;;;;;;8.20;2.23;;;24.30;66.00;;;;;;5046961;28;20214;-74
2022/07/20 05:30:58;;;;;;;4.23;2.20;;;24.50;65.30;;;;;;5046960;28;20206;-74
2022/07/20 05:33:25;;;;;;;9.83;2.03;;;24.70;64.60;;;;;;5039915;28;20211;-74
2022/07/20 05:35:52;;;;;;;8.80;2.43;;;24.90;63.50;;;;;;5041098;28;20217;-74
2022/07/20 05:38:20;;;;;;;4.37;1.93;;;25.10;62.50;;;;;;5043793;28;20278;-74
2022/07/20 05:40:47;;;;;;;4.53;1.90;;;25.30;61.70;;;;;;5039889;28;20202;-74
2022/07/20 05:43:15;;;;;;;6.37;2.47;;;25.60;61.40;;;;;;5046123;28;20249;-74
2022/07/20 05:45:42;;;;;;;5.07;2.03;;;25.80;61.00;;;;;;5039935;28;20195;-74
2022/07/20 05:48:15;;;;;;;7.30;2.30;;;26.00;60.30;;;;;;5039368;28;20316;-74
2022/07/20 05:50:43;;;;;;;8.27;2.50;;;26.20;59.40;;;;;;5046737;28;20199;-74
2022/07/20 05:53:13;;;;;;;4.87;2.13;;;26.40;59.10;;;;;;5036846;28;20285;-74
2022/07/20 05:55:41;;;;;;;6.80;1.83;;;26.50;58.70;;;;;;5044694;28;20303;-74
2022/07/20 05:58:10;;;;;;;4.07;1.93;;;26.70;58.30;;;;;;5044497;28;20209;-74
2022/07/20 06:00:37;;;;;;;4.53;2.10;;;26.80;57.60;;;;;;5043987;28;20705;-74
2022/07/20 06:03:05;;;;;;;7.60;1.93;;;26.90;57.10;;;;;;5038474;28;20581;-74
2022/07/20 06:05:33;;;;;;;5.33;2.37;;;27.00;56.70;;;;;;5025433;28;20659;-74
2022/07/20 06:08:02;;;;;;;10.30;2.00;;;27.20;56.50;;;;;;5040550;28;20226;-74
2022/07/20 06:10:31;;;;;;;4.33;1.73;;;27.30;56.40;;;;;;5047172;28;20199;-74
2022/07/20 06:13:00;;;;;;;6.57;2.30;;;27.40;56.10;;;;;;5040341;28;20210;-74
2022/07/20 06:15:35;;;;;;;7.17;2.50;;;27.60;55.40;;;;;;5044569;28;20252;-74
2022/07/20 06:18:02;;;;;;;6.67;2.20;;;27.70;55.00;;;;;;5046317;28;20202;-74
2022/07/20 06:20:29;;;;;;;3.03;1.77;;;27.80;54.90;;;;;;5040302;28;20217;-74
2022/07/20 06:22:58;;;;;;;3.40;2.60;;;27.90;54.50;;;;;;5040920;28;20605;-75
2022/07/20 06:25:26;;;;;;;4.23;2.13;;;28.00;54.10;;;;;;5039722;28;20261;-75
2022/07/20 06:27:53;;;;;;;6.00;2.30;;;28.10;53.20;;;;;;5033560;28;20204;-74
2022/07/20 06:30:20;;;;;;;6.93;2.00;;;28.20;53.00;;;;;;5041460;28;20291;-74
2022/07/20 06:32:48;;;;;;;6.60;2.17;;;28.30;53.20;;;;;;5039675;28;20213;-74
2022/07/20 06:35:16;;;;;;;6.03;2.00;;;28.40;52.50;;;;;;5038801;28;20649;-74
2022/07/20 06:37:43;;;;;;;8.93;2.00;;;28.50;51.70;;;;;;5038506;28;20591;-74
2022/07/20 06:40:11;;;;;;;5.60;2.10;;;28.70;52.40;;;;;;5045048;28;20681;-74
2022/07/20 06:42:38;;;;;;;4.23;2.10;;;28.80;52.30;;;;;;5072963;28;20210;-74
2022/07/20 06:45:05;;;;;;;3.33;1.53;;;29.00;51.40;;;;;;5039589;28;20538;-74
2022/07/20 06:47:33;;;;;;;4.13;1.40;;;29.20;51.00;;;;;;5045489;28;20222;-74
2022/07/20 06:50:00;;;;;;;3.20;1.90;;;29.40;49.90;;;;;;5040241;28;20203;-74
2022/07/20 06:52:31;;;;;;;6.03;2.10;;;29.60;48.60;;;;;;5041816;28;20210;-74
2022/07/20 06:54:59;;;;;;;3.67;2.00;;;29.70;49.10;;;;;;5041985;28;20202;-74
2022/07/20 06:57:26;;;;;;;4.00;1.83;;;29.90;48.90;;;;;;5040893;28;20203;-74
2022/07/20 06:59:53;;;;;;;4.07;1.83;;;30.00;47.00;;;;;;5049510;28;20194;-75
2022/07/20 07:02:20;;;;;;;3.63;1.57;;;30.20;46.70;;;;;;5043469;28;20217;-75
2022/07/20 07:04:48;;;;;;;7.43;2.00;;;30.20;46.70;;;;;;5035631;28;20210;-75
2022/07/20 07:07:15;;;;;;;7.37;1.87;;;30.40;46.30;;;;;;5042253;28;20208;-75
2022/07/20 07:09:42;;;;;;;3.53;1.40;;;30.50;45.70;;;;;;5039131;28;20218;-75
2022/07/20 07:12:11;;;;;;;3.43;1.97;;;30.60;46.10;;;;;;5046668;28;20662;-75
2022/07/20 07:14:38;;;;;;;6.97;1.77;;;30.80;45.90;;;;;;5041781;28;20204;-75
2022/07/20 07:17:06;;;;;;;6.57;1.70;;;30.90;43.70;;;;;;5046730;28;20210;-74
2022/07/20 07:19:33;;;;;;;2.33;1.70;;;31.10;44.20;;;;;;5046171;28;20290;-75
2022/07/20 07:22:00;;;;;;;3.37;1.53;;;31.20;43.70;;;;;;5046273;28;20280;-75
2022/07/20 07:24:27;;;;;;;6.50;2.10;;;31.40;43.30;;;;;;5040523;28;20298;-75
2022/07/20 07:26:54;;;;;;;3.53;1.40;;;31.50;42.30;;;;;;5046321;28;20258;-75
2022/07/20 07:29:23;;;;;;;3.67;1.40;;;31.70;41.60;;;;;;5047370;28;20199;-75
2022/07/20 07:31:51;;;;;;;3.37;1.60;;;31.90;41.50;;;;;;5044246;28;20264;-75
2022/07/20 07:34:18;;;;;;;3.00;1.30;;;32.10;41.00;;;;;;5037401;28;20206;-75
2022/07/20 07:36:46;;;;;;;3.17;1.53;;;32.20;38.40;;;;;;5042591;28;20278;-75
2022/07/20 07:39:13;;;;;;;2.67;1.77;;;32.30;38.50;;;;;;5041805;28;20234;-75
2022/07/20 07:41:40;;;;;;;1.97;1.30;;;32.40;34.70;;;;;;5044347;28;20215;-72
2022/07/20 07:44:08;;;;;;;3.57;1.57;;;32.40;35.80;;;;;;5043847;28;20253;-72
2022/07/20 07:46:35;;;;;;;1.50;1.40;;;32.40;37.10;;;;;;5044644;28;20208;-72
2022/07/20 07:49:03;;;;;;;4.47;1.43;;;32.60;37.50;;;;;;5043167;28;20222;-73
2022/07/20 07:51:31;;;;;;;1.43;1.23;;;32.80;36.70;;;;;;5048386;28;20211;-72
2022/07/20 07:53:58;;;;;;;3.63;1.40;;;33.00;36.40;;;;;;5043876;28;20199;-73
2022/07/20 07:56:25;;;;;;;2.30;1.40;;;33.20;36.10;;;;;;5043551;28;20213;-74
2022/07/20 07:58:52;;;;;;;5.23;1.73;;;33.40;36.30;;;;;;5043098;28;20209;-74
2022/07/20 08:01:39;;;;;;;1.67;1.40;;;33.60;36.00;;;;;;5041413;28;20205;-72
2022/07/20 08:04:07;;;;;;;8.53;1.70;;;33.80;34.00;;;;;;5047266;28;20231;-72
2022/07/20 08:06:36;;;;;;;1.30;1.03;;;33.90;33.70;;;;;;5046146;28;20209;-73
2022/07/20 08:09:04;;;;;;;2.27;1.30;;;34.10;33.40;;;;;;5042401;28;20222;-73
2022/07/20 08:11:31;;;;;;;3.17;1.40;;;34.10;31.60;;;;;;5040234;28;20605;-72
2022/07/20 08:14:02;;;;;;;2.30;1.20;;;34.00;32.30;;;;;;5046817;28;20226;-72
2022/07/20 08:16:31;;;;;;;4.30;1.63;;;34.00;33.20;;;;;;5046676;28;20682;-72
2022/07/20 08:18:59;;;;;;;6.90;1.40;;;34.10;32.90;;;;;;5039803;28;20203;-72
2022/07/20 08:21:26;;;;;;;9.47;1.20;;;34.20;32.60;;;;;;5044639;28;20221;-72
2022/07/20 08:24:00;;;;;;;3.60;1.40;;;34.30;31.00;;;;;;5041335;28;20230;-72
2022/07/20 08:26:27;;;;;;;4.30;1.53;;;34.50;30.20;;;;;;5041901;28;20262;-73
2022/07/20 08:28:54;;;;;;;2.13;1.23;;;34.50;30.10;;;;;;5044647;28;20203;-72
2022/07/20 08:31:21;;;;;;;1.40;1.30;;;34.60;30.40;;;;;;5046996;28;20203;-72
2022/07/20 08:33:49;;;;;;;2.20;1.47;;;34.70;30.00;;;;;;5045299;28;20233;-72
2022/07/20 08:36:17;;;;;;;4.30;1.33;;;34.90;30.00;;;;;;5046941;28;20213;-72
2022/07/20 08:38:44;;;;;;;4.10;1.50;;;34.90;29.20;;;;;;5049403;28;20653;-72
2022/07/20 08:41:11;;;;;;;4.00;1.13;;;35.00;29.60;;;;;;5046070;28;20203;-72
2022/07/20 08:43:38;;;;;;;6.57;1.70;;;35.10;30.00;;;;;;5047114;28;20215;-72
2022/07/20 08:46:06;;;;;;;1.53;1.20;;;35.20;29.40;;;;;;5040884;28;20207;-72
2022/07/20 08:48:39;;;;;;;2.37;1.60;;;35.20;29.30;;;;;;5044264;28;20199;-72
2022/07/20 08:51:06;;;;;;;2.37;1.10;;;35.30;30.00;;;;;;5040266;28;20195;-72
2022/07/20 08:53:33;;;;;;;2.60;1.33;;;35.50;29.10;;;;;;5038622;28;20199;-72
2022/07/20 08:56:15;;;;;;;4.53;1.30;;;35.50;28.70;;;;;;5045089;28;20203;-72
2022/07/20 08:58:42;;;;;;;2.70;1.50;;;35.60;28.40;;;;;;5046693;28;20207;-72
2022/07/20 09:01:14;;;;;;;1.40;1.20;;;35.60;27.40;;;;;;5040856;28;20266;-74
2022/07/20 09:03:44;;;;;;;2.27;1.30;;;35.50;27.80;;;;;;5045149;28;20622;-72
2022/07/20 09:06:12;;;;;;;1.23;1.03;;;35.50;27.50;;;;;;5040412;28;20523;-73
2022/07/20 09:08:59;;;;;;;2.07;1.40;;;35.30;28.60;;;;;;5041170;28;20279;-73
2022/07/20 09:11:27;;;;;;;6.77;1.40;;;35.50;28.20;;;;;;5044149;28;20229;-72
2022/07/20 09:13:54;;;;;;;4.63;1.50;;;35.50;28.70;;;;;;5040283;28;20210;-73
2022/07/20 09:16:47;;;;;;;2.23;1.37;;;35.70;28.60;;;;;;5043390;28;20521;-72
2022/07/20 09:19:16;;;;;;;2.00;1.30;;;36.00;29.00;;;;;;5041461;28;20217;-71
2022/07/20 09:21:47;;;;;;;4.20;1.10;;;36.20;28.90;;;;;;5041701;28;20568;-73
2022/07/20 09:24:19;;;;;;;4.43;1.27;;;36.40;28.60;;;;;;5040211;28;20222;-74
2022/07/20 09:27:03;;;;;;;2.20;1.43;;;36.50;28.40;;;;;;5040364;28;20239;-74
2022/07/20 09:29:30;;;;;;;1.63;1.00;;;36.70;27.90;;;;;;5040239;28;20229;-72
2022/07/20 09:32:03;;;;;;;1.50;1.40;;;36.90;27.70;;;;;;5045077;28;20200;-73
2022/07/20 09:34:36;;;;;;;1.45;1.27;;;37.00;27.70;;;;;;5044103;28;20218;-72
2022/07/20 09:37:16;;;;;;;2.05;1.25;;;37.10;27.90;;;;;;5043403;28;20221;-72
2022/07/20 09:40:00;;;;;;;2.60;1.35;;;37.30;27.80;;;;;;5038373;28;20219;-73
2022/07/20 09:42:41;;;;;;;3.60;1.40;;;37.30;27.70;;;;;;5042355;28;20207;-72
2022/07/20 09:45:27;;;;;;;1.42;1.10;;;37.40;27.20;;;;;;5042921;28;20332;-73
2022/07/20 09:48:11;;;;;;;4.25;1.30;;;37.50;27.20;;;;;;5045449;28;20264;-73
2022/07/20 09:50:43;;;;;;;3.30;1.25;;;37.50;26.90;;;;;;5045337;28;20298;-75
2022/07/20 09:53:13;;;;;;;1.88;1.35;;;37.50;27.50;;;;;;5042220;28;20635;-74
2022/07/20 09:55:40;;;;;;;1.52;1.20;;;37.50;27.80;;;;;;5038042;28;20213;-73
2022/07/20 09:58:09;;;;;;;1.27;1.17;;;37.50;27.20;;;;;;5045036;28;20615;-74
2022/07/20 10:00:37;;;;;;;4.00;1.42;;;37.50;27.60;;;;;;5038133;28;20195;-73
2022/07/20 10:03:13;;;;;;;1.30;1.20;;;37.50;27.40;;;;;;5044943;28;20223;-73
2022/07/20 10:05:42;;;;;;;2.97;1.42;;;37.60;27.40;;;;;;5052913;28;20207;-73
2022/07/20 10:08:09;;;;;;;2.03;1.58;;;37.60;26.90;;;;;;5042918;28;20199;-72
2022/07/20 10:10:36;;;;;;;4.07;1.42;;;37.60;27.30;;;;;;5035690;28;20194;-73
2022/07/20 10:13:03;;;;;;;1.75;1.23;;;37.60;27.50;;;;;;5040702;28;20657;-74
2022/07/20 10:15:45;;;;;;;1.38;1.27;;;37.50;27.10;;;;;;5038851;28;20499;-72
2022/07/20 10:18:13;;;;;;;3.53;1.65;;;37.60;28.40;;;;;;5043326;28;20697;-72
2022/07/20 10:20:47;;;;;;;1.75;1.60;;;37.70;27.90;;;;;;5049879;28;20264;-72
2022/07/20 10:23:14;;;;;;;3.33;1.63;;;37.70;28.40;;;;;;5041716;28;20215;-72
2022/07/20 10:25:46;;;;;;;2.85;1.77;;;37.70;27.00;;;;;;5042925;28;20198;-74
2022/07/20 10:28:28;;;;;;;3.28;1.92;;;37.60;28.20;;;;;;5040415;28;20256;-73
2022/07/20 10:31:03;;;;;;;7.57;1.52;;;37.60;27.70;;;;;;5041318;28;20194;-73
2022/07/20 10:33:32;;;;;;;1.88;1.50;;;37.70;28.50;;;;;;5046126;28;20214;-73
2022/07/20 10:39:39;;;;;;;5.13;1.67;;;37.90;28.50;;;;;;5043640;28;20208;-72
2022/07/20 10:42:40;;;;;;;4.25;1.65;;;38.10;28.30;;;;;;5052005;28;20206;-72
2022/07/20 10:45:28;;;;;;;3.22;1.90;;;38.20;27.70;;;;;;5041825;28;20239;-73
2022/07/20 10:48:00;;;;;;;1.42;1.33;;;38.20;27.40;;;;;;5043630;28;20298;-72
2022/07/20 10:50:42;;;;;;;7.22;1.80;;;38.20;26.80;;;;;;5042081;28;20216;-73
2022/07/20 10:53:16;;;;;;;2.33;1.70;;;38.10;27.90;;;;;;5041630;28;20226;-74
2022/07/20 10:55:51;;;;;;;6.68;1.70;;;38.10;27.90;;;;;;5041254;28;20261;-73
2022/07/20 10:58:22;;;;;;;3.45;1.52;;;38.00;27.50;;;;;;5040214;28;20202;-73
2022/07/20 11:00:52;;;;;;;6.53;1.88;;;38.10;27.80;;;;;;5040168;28;20198;-73
2022/07/20 11:03:27;;;;;;;3.05;1.40;;;38.10;28.50;;;;;;5040497;28;20231;-74
2022/07/20 11:06:15;;;;;;;1.60;1.50;;;38.20;27.90;;;;;;5041948;28;20202;-73
2022/07/20 11:08:56;;;;;;;1.92;1.73;;;38.20;27.80;;;;;;5041505;28;20273;-73
2022/07/20 11:11:29;;;;;;;1.77;1.67;;;38.20;28.10;;;;;;5039131;28;20206;-74
2022/07/20 11:13:57;;;;;;;4.40;1.40;;;38.30;28.20;;;;;;5037921;28;20202;-74
2022/07/20 11:16:26;;;;;;;2.15;1.50;;;38.20;27.50;;;;;;5040702;28;20211;-73
2022/07/20 11:18:55;;;;;;;7.28;2.38;;;38.20;27.20;;;;;;5041328;28;20206;-74
2022/07/20 11:21:32;;;;;;;2.53;1.67;;;38.20;27.70;;;;;;5040344;28;20214;-71
2022/07/20 11:24:24;;;;;;;6.15;2.10;;;38.20;28.20;;;;;;5035700;28;20218;-72
2022/07/20 11:26:52;;;;;;;2.67;1.90;;;38.20;27.90;;;;;;5031867;28;20238;-73
2022/07/20 11:29:22;;;;;;;2.63;1.83;;;38.40;28.20;;;;;;5034171;28;20204;-73
2022/07/20 11:31:50;;;;;;;5.75;1.80;;;38.60;28.00;;;;;;5053558;28;20194;-73
2022/07/20 11:34:17;;;;;;;2.72;1.90;;;38.70;28.10;;;;;;5035677;28;20207;-72
2022/07/20 11:36:44;;;;;;;1.67;1.55;;;38.80;28.30;;;;;;5031009;28;20738;-72
2022/07/20 11:39:12;;;;;;;1.77;1.55;;;38.80;27.90;;;;;;5039466;28;20371;-72
2022/07/20 11:41:43;;;;;;;5.80;1.98;;;38.80;27.90;;;;;;5036933;28;20198;-72
2022/07/20 11:44:19;;;;;;;4.28;1.75;;;38.70;28.20;;;;;;5043714;28;20223;-73
2022/07/20 11:46:48;;;;;;;3.47;2.10;;;38.60;28.00;;;;;;5041771;28;20278;-72
2022/07/20 11:49:17;;;;;;;2.83;1.80;;;38.40;28.50;;;;;;5041449;28;20214;-72
2022/07/20 11:52:06;;;;;;;2.85;1.92;;;38.40;28.40;;;;;;5045281;28;20289;-73
2022/07/20 11:54:39;;;;;;;5.20;2.03;;;38.40;28.60;;;;;;5041073;28;20206;-72
2022/07/20 11:57:07;;;;;;;2.25;1.67;;;38.40;28.30;;;;;;5049610;28;20211;-72
2022/07/20 11:59:43;;;;;;;9.75;2.15;;;38.40;28.50;;;;;;5039719;28;20200;-72
2022/07/20 12:02:13;;;;;;;1.60;1.50;;;38.40;28.30;;;;;;5039544;28;20272;-72
2022/07/20 12:04:40;;;;;;;3.25;2.00;;;38.50;27.90;;;;;;5053240;28;20224;-73
2022/07/20 12:09:53;;;;;;;2.22;2.03;;;38.40;27.70;;;;;;5043398;28;20203;-72
2022/07/20 12:12:47;;;;;;;5.30;1.77;;;38.30;28.80;;;;;;5047971;28;20195;-72
2022/07/20 12:15:15;;;;;;;2.00;1.70;;;38.40;28.70;;;;;;5048750;28;20207;-72
2022/07/20 12:17:48;;;;;;;4.18;2.15;;;38.50;28.20;;;;;;5068453;28;20210;-72
2022/07/20 12:20:16;;;;;;;3.03;1.75;;;38.70;28.20;;;;;;5056044;28;20206;-72
2022/07/20 12:22:57;;;;;;;5.57;2.03;;;38.70;27.90;;;;;;5045118;28;20288;-72
2022/07/20 12:25:39;;;;;;;5.03;2.05;;;38.60;28.30;;;;;;5048401;28;20856;-73
2022/07/20 12:28:07;;;;;;;2.47;2.20;;;38.70;28.80;;;;;;5051788;28;20209;-72
2022/07/20 12:31:15;;;;;;;7.43;2.50;;;38.70;27.90;;;;;;5053741;28;20289;-73
2022/07/20 12:34:12;;;;;;;5.00;2.30;;;38.70;28.40;;;;;;5047371;28;20207;-73
2022/07/20 12:36:46;;;;;;;2.80;1.70;;;38.70;28.60;;;;;;5036616;28;20214;-73
2022/07/20 12:39:34;;;;;;;2.10;2.00;;;38.70;28.70;;;;;;5050925;28;20206;-73
2022/07/20 12:42:15;;;;;;;4.03;2.25;;;38.80;28.60;;;;;;5049590;28;20217;-72
2022/07/20 12:45:05;;;;;;;2.25;2.03;;;39.00;28.50;;;;;;5050474;28;20221;-72
2022/07/20 12:47:33;;;;;;;4.32;2.40;;;39.00;28.30;;;;;;5047401;28;20203;-72
2022/07/20 12:50:20;;;;;;;2.35;2.15;;;39.00;28.10;;;;;;5055502;28;20199;-72
2022/07/20 12:52:47;;;;;;;3.63;2.10;;;39.00;28.50;;;;;;5050586;28;20202;-72
2022/07/20 12:55:15;;;;;;;3.08;2.25;;;39.00;28.50;;;;;;5053882;28;20204;-73
2022/07/20 12:57:43;;;;;;;2.90;2.13;;;39.00;29.00;;;;;;5056501;28;20207;-71
2022/07/20 13:00:11;;;;;;;3.08;2.30;;;38.90;28.40;;;;;;5052886;28;20207;-71
2022/07/20 13:02:38;;;;;;;3.42;2.17;;;38.90;28.90;;;;;;5049006;28;20195;-73
2022/07/20 13:05:06;;;;;;;4.93;2.42;;;38.90;28.80;;;;;;5044327;28;20694;-73
2022/07/20 13:07:33;;;;;;;3.28;2.30;;;38.90;28.70;;;;;;5046172;28;20274;-73
2022/07/20 13:10:00;;;;;;;2.40;2.20;;;38.80;29.00;;;;;;5048408;28;20313;-74